Time;durP1;ratioP1;P1;durP2;ratioP2;P2;SDS_P1;SDS_P2;PMS_P1;PMS_P2;Temp;Humidity;BMP_temperature;BMP_pressure;BME280_temperature;BME280_humidity;BME280_pressure;Samples;Min_cycle;Max_cycle;Signal;HPM_P1;HPM_P2
2024/01/01 00:01:17;;;;;;;23.45;12.45;;;8.20;99.90;;;;;;5127959;27;20086;-81
2024/01/01 00:03:45;;;;;;;28.52;18.50;;;8.20;99.90;;;;;;5094409;28;20504;-81
2024/01/01 00:06:11;;;;;;;28.98;16.90;;;8.20;99.90;;;;;;5107366;27;20050;-81
2024/01/01 00:08:36;;;;;;;26.10;16.50;;;8.20;99.90;;;;;;5092481;28;20428;-80
2024/01/01 00:11:02;;;;;;;31.45;19.13;;;8.30;99.90;;;;;;5127092;27;20406;-81
2024/01/01 00:13:27;;;;;;;32.65;19.13;;;8.20;99.90;;;;;;5120045;27;20047;-81
2024/01/01 00:15:53;;;;;;;32.75;18.88;;;8.20;99.90;;;;;;5127529;27;20039;-80
2024/01/01 00:18:20;;;;;;;26.10;16.88;;;8.20;99.90;;;;;;5086381;28;20040;-80
2024/01/01 00:20:45;;;;;;;21.92;12.65;;;8.20;99.90;;;;;;5126433;27;20092;-80
2024/01/01 00:23:11;;;;;;;21.98;13.75;;;8.30;99.90;;;;;;5076221;28;20036;-80
2024/01/01 00:25:37;;;;;;;24.13;15.02;;;8.30;99.90;;;;;;5111116;27;20043;-80
2024/01/01 00:28:05;;;;;;;25.60;15.65;;;8.30;99.90;;;;;;5089687;27;20028;-80
2024/01/01 00:30:31;;;;;;;27.60;16.73;;;8.30;99.90;;;;;;5113763;28;20093;-81
2024/01/01 00:32:57;;;;;;;32.45;17.13;;;8.30;99.90;;;;;;5099922;28;20092;-81
2024/01/01 00:35:23;;;;;;;24.33;13.45;;;8.40;99.90;;;;;;5113801;28;20468;-80
2024/01/01 00:37:48;;;;;;;28.20;14.43;;;8.40;99.90;;;;;;5096426;28;20031;-81
2024/01/01 00:40:15;;;;;;;31.70;17.40;;;8.30;99.90;;;;;;5122768;27;20027;-80
2024/01/01 00:42:42;;;;;;;31.45;18.45;;;8.40;99.90;;;;;;5089117;28;20032;-80
2024/01/01 00:45:09;;;;;;;16.40;10.57;;;8.40;99.90;;;;;;5107711;28;20499;-81
2024/01/01 00:47:35;;;;;;;28.08;17.52;;;8.40;99.90;;;;;;5092623;28;20027;-80
2024/01/01 00:50:01;;;;;;;23.13;13.07;;;8.40;99.90;;;;;;5094706;28;20418;-80
2024/01/01 00:52:26;;;;;;;27.20;15.40;;;8.40;99.90;;;;;;5096157;28;20031;-81
2024/01/01 00:54:52;;;;;;;26.75;16.17;;;8.50;99.90;;;;;;5110991;28;20081;-81
2024/01/01 00:57:18;;;;;;;26.63;14.40;;;8.50;99.90;;;;;;5145309;27;20036;-81
2024/01/01 00:59:43;;;;;;;23.60;13.60;;;8.50;99.90;;;;;;5095292;28;20131;-81
2024/01/01 01:02:09;;;;;;;24.50;12.77;;;8.50;99.90;;;;;;5096040;28;20032;-81
2024/01/01 01:04:35;;;;;;;22.33;12.02;;;8.50;99.90;;;;;;5129422;27;20040;-81
2024/01/01 01:07:01;;;;;;;23.58;11.95;;;8.50;99.90;;;;;;5127709;27;20110;-81
2024/01/01 01:09:26;;;;;;;22.85;11.90;;;8.60;99.90;;;;;;5111623;27;20119;-81
2024/01/01 01:11:52;;;;;;;20.60;12.43;;;8.60;99.90;;;;;;5094085;28;20043;-82
2024/01/01 01:14:18;;;;;;;17.60;10.27;;;8.60;99.90;;;;;;5095253;28;20040;-81
2024/01/01 01:16:43;;;;;;;20.77;10.20;;;8.70;99.90;;;;;;5095267;28;20042;-81
2024/01/01 01:19:09;;;;;;;19.08;10.27;;;8.70;99.90;;;;;;5111793;28;20044;-81
2024/01/01 01:21:35;;;;;;;18.88;11.20;;;8.70;99.90;;;;;;5094360;28;20036;-81
2024/01/01 01:24:00;;;;;;;23.58;13.95;;;8.70;99.90;;;;;;5110943;28;20040;-81
2024/01/01 01:26:26;;;;;;;22.83;12.15;;;8.70;99.90;;;;;;5118666;27;20040;-81
2024/01/01 01:28:51;;;;;;;18.67;9.52;;;8.70;99.90;;;;;;5097771;28;20039;-81
2024/01/01 01:31:17;;;;;;;23.70;14.05;;;8.70;99.90;;;;;;5111518;28;20039;-81
2024/01/01 01:33:43;;;;;;;21.35;10.65;;;8.70;99.90;;;;;;5129738;27;20066;-80
2024/01/01 01:36:13;;;;;;;17.42;8.05;;;8.70;99.90;;;;;;5123698;27;20043;-80
2024/01/01 01:38:39;;;;;;;27.10;13.98;;;8.70;99.90;;;;;;5092263;28;20032;-81
2024/01/01 01:41:05;;;;;;;20.63;10.32;;;8.70;99.90;;;;;;5103880;28;20378;-81
2024/01/01 01:43:30;;;;;;;20.40;11.75;;;8.80;99.90;;;;;;5095445;28;20058;-80
2024/01/01 01:45:58;;;;;;;22.90;11.73;;;8.70;99.90;;;;;;5110286;28;20123;-80
2024/01/01 01:48:24;;;;;;;19.20;8.25;;;8.70;99.90;;;;;;5095402;28;20036;-80
2024/01/01 01:50:51;;;;;;;25.98;14.10;;;8.70;99.90;;;;;;5111129;28;20048;-80
2024/01/01 01:53:23;;;;;;;12.75;7.43;;;8.70;99.90;;;;;;5127698;28;20096;-80
2024/01/01 01:55:50;;;;;;;18.75;7.68;;;8.70;99.90;;;;;;5129046;28;20043;-80
2024/01/01 01:58:17;;;;;;;20.73;10.45;;;8.70;99.90;;;;;;5129285;28;20066;-81
2024/01/01 02:00:45;;;;;;;20.55;9.98;;;8.60;99.90;;;;;;5094463;28;20031;-80
2024/01/01 02:03:12;;;;;;;17.42;9.27;;;8.70;99.90;;;;;;5110851;28;20035;-80
2024/01/01 02:05:38;;;;;;;15.10;7.78;;;8.70;99.90;;;;;;5111533;28;20035;-80
2024/01/01 02:08:05;;;;;;;16.73;9.50;;;8.80;99.90;;;;;;5095345;28;20104;-80
2024/01/01 02:10:30;;;;;;;17.27;9.02;;;8.80;99.90;;;;;;5111867;28;20079;-81
2024/01/01 02:12:56;;;;;;;22.75;12.25;;;8.70;99.90;;;;;;5127054;28;20466;-80
2024/01/01 02:15:22;;;;;;;13.77;8.48;;;8.80;99.90;;;;;;5094482;28;20119;-80
2024/01/01 02:17:48;;;;;;;20.90;11.00;;;8.70;99.90;;;;;;5096716;28;20114;-80
2024/01/01 02:20:14;;;;;;;17.00;10.25;;;8.80;99.90;;;;;;5099718;28;20051;-80
2024/01/01 02:22:41;;;;;;;24.05;9.98;;;8.70;99.90;;;;;;5113580;28;20027;-80
2024/01/01 02:25:12;;;;;;;14.50;8.02;;;8.70;99.90;;;;;;5099120;28;20071;-79
2024/01/01 02:27:38;;;;;;;20.50;11.32;;;8.70;99.90;;;;;;5115207;28;20054;-80
2024/01/01 02:30:10;;;;;;;20.30;11.18;;;8.60;99.90;;;;;;5099106;28;20044;-79
2024/01/01 02:32:37;;;;;;;15.23;8.13;;;8.70;99.90;;;;;;5097476;28;20065;-80
2024/01/01 02:35:07;;;;;;;21.77;12.73;;;8.70;99.90;;;;;;5115562;28;20043;-79
2024/01/01 02:37:35;;;;;;;17.20;9.02;;;8.70;99.90;;;;;;5114534;28;20035;-80
2024/01/01 02:40:02;;;;;;;14.27;8.73;;;8.60;99.90;;;;;;5133255;27;20373;-80
2024/01/01 02:42:29;;;;;;;10.27;5.53;;;8.70;99.90;;;;;;5097921;28;20050;-81
2024/01/01 02:44:55;;;;;;;16.45;9.05;;;8.80;99.90;;;;;;5114590;28;20046;-81
2024/01/01 02:47:21;;;;;;;17.85;8.60;;;8.70;99.90;;;;;;5114718;27;20495;-80
2024/01/01 02:49:46;;;;;;;16.58;8.55;;;8.70;99.90;;;;;;5115176;28;20043;-81
2024/01/01 02:52:12;;;;;;;18.15;8.70;;;8.70;99.90;;;;;;5098185;28;20071;-81
2024/01/01 02:54:37;;;;;;;15.25;9.13;;;8.70;99.90;;;;;;5112963;27;20028;-81
2024/01/01 02:57:03;;;;;;;12.85;7.72;;;8.70;99.90;;;;;;5125976;27;20027;-81
2024/01/01 02:59:29;;;;;;;9.52;4.95;;;8.70;99.90;;;;;;5115196;28;20051;-81
2024/01/01 03:01:54;;;;;;;9.23;4.78;;;8.60;99.90;;;;;;5096087;27;20035;-80
2024/01/01 03:04:20;;;;;;;9.13;4.30;;;8.50;99.90;;;;;;5092319;27;20047;-80
2024/01/01 03:06:45;;;;;;;9.05;4.70;;;8.40;99.90;;;;;;5122724;27;20277;-80
2024/01/01 03:09:11;;;;;;;11.75;5.80;;;8.30;99.90;;;;;;5119733;27;20496;-81
2024/01/01 03:11:37;;;;;;;15.52;7.50;;;8.10;99.90;;;;;;5110093;27;20054;-80
2024/01/01 03:14:02;;;;;;;10.98;4.80;;;8.10;99.90;;;;;;5112677;27;20067;-80
2024/01/01 03:16:28;;;;;;;13.90;6.45;;;8.00;99.90;;;;;;5131317;27;20396;-81
2024/01/01 03:18:54;;;;;;;11.02;5.45;;;8.10;99.90;;;;;;5079038;28;20044;-80
2024/01/01 03:21:19;;;;;;;11.80;6.00;;;8.10;99.90;;;;;;5135846;27;20023;-81
2024/01/01 03:23:45;;;;;;;10.95;4.70;;;8.10;99.90;;;;;;5080270;28;20214;-81
2024/01/01 03:26:11;;;;;;;11.27;5.35;;;8.00;99.90;;;;;;5108189;27;20084;-80
2024/01/01 03:28:37;;;;;;;6.57;3.28;;;8.00;99.90;;;;;;5131449;27;20043;-81
2024/01/01 03:31:03;;;;;;;10.20;4.05;;;8.10;99.90;;;;;;5109035;27;20508;-81
2024/01/01 03:33:32;;;;;;;9.57;3.38;;;8.10;99.90;;;;;;5118731;27;20135;-81
2024/01/01 03:35:58;;;;;;;13.18;4.63;;;8.10;99.90;;;;;;5106135;27;20051;-80
2024/01/01 03:38:23;;;;;;;11.25;3.65;;;8.10;99.90;;;;;;5095409;27;20556;-80
2024/01/01 03:40:49;;;;;;;14.43;5.18;;;8.10;99.90;;;;;;5093202;27;20144;-80
2024/01/01 03:43:15;;;;;;;7.65;3.75;;;8.10;99.90;;;;;;5076625;27;20126;-80
2024/01/01 03:45:41;;;;;;;14.48;6.05;;;8.00;99.90;;;;;;5100752;27;20040;-80
2024/01/01 03:48:08;;;;;;;13.07;5.13;;;7.90;99.90;;;;;;5095161;27;20040;-80
2024/01/01 03:50:33;;;;;;;13.20;3.78;;;7.90;99.90;;;;;;5119592;27;20156;-80
2024/01/01 03:52:59;;;;;;;9.02;3.28;;;7.80;99.90;;;;;;5148675;27;20078;-80
2024/01/01 03:55:25;;;;;;;8.70;3.25;;;7.80;99.90;;;;;;5122912;27;20035;-80
2024/01/01 03:57:51;;;;;;;9.70;2.88;;;7.90;99.90;;;;;;5115431;27;20081;-80
2024/01/01 04:00:17;;;;;;;8.32;2.88;;;7.90;99.90;;;;;;5137670;27;20431;-81
2024/01/01 04:02:43;;;;;;;12.40;4.18;;;7.80;99.90;;;;;;5148640;27;20038;-80
2024/01/01 04:05:10;;;;;;;5.00;1.70;;;7.80;99.90;;;;;;5112208;27;20039;-81
2024/01/01 04:07:36;;;;;;;4.00;1.60;;;7.80;99.90;;;;;;5118185;27;20046;-81
2024/01/01 04:10:04;;;;;;;6.75;2.42;;;7.90;99.90;;;;;;5103605;27;20039;-80
2024/01/01 04:12:29;;;;;;;7.43;2.22;;;7.80;99.90;;;;;;5081186;28;20047;-81
2024/01/01 04:14:55;;;;;;;5.22;2.03;;;7.80;99.90;;;;;;5091548;27;20087;-81
2024/01/01 04:17:21;;;;;;;4.50;1.60;;;7.80;99.90;;;;;;5076331;27;20035;-80
2024/01/01 04:19:47;;;;;;;9.43;1.98;;;7.80;99.90;;;;;;5128038;27;20031;-80
2024/01/01 04:22:18;;;;;;;6.32;2.00;;;7.80;99.90;;;;;;5092877;28;20063;-80
2024/01/01 04:24:44;;;;;;;8.25;2.25;;;7.80;99.90;;;;;;5123730;27;20066;-81
2024/01/01 04:27:10;;;;;;;4.70;1.83;;;7.70;99.90;;;;;;5122105;27;20051;-81
2024/01/01 04:29:36;;;;;;;3.90;1.60;;;7.80;99.90;;;;;;5128505;27;20476;-81
2024/01/01 04:32:02;;;;;;;7.22;1.40;;;7.70;99.90;;;;;;5102558;27;20040;-81
2024/01/01 04:34:28;;;;;;;6.80;2.90;;;7.70;99.90;;;;;;5121201;27;20047;-81
2024/01/01 04:36:53;;;;;;;6.75;2.28;;;7.70;99.90;;;;;;5089407;27;20042;-81
2024/01/01 04:39:19;;;;;;;8.05;1.85;;;7.70;99.90;;;;;;5105455;27;20096;-81
2024/01/01 04:41:45;;;;;;;3.55;1.73;;;7.80;99.90;;;;;;5127465;27;20104;-81
2024/01/01 04:44:11;;;;;;;4.82;1.88;;;7.80;99.90;;;;;;5077111;27;20126;-80
2024/01/01 04:46:37;;;;;;;7.45;2.65;;;7.80;99.90;;;;;;5107228;27;20404;-81
2024/01/01 04:49:02;;;;;;;4.50;1.70;;;7.70;99.90;;;;;;5104541;27;20039;-81
2024/01/01 04:51:28;;;;;;;7.40;2.38;;;7.70;99.90;;;;;;5106976;27;20031;-81
2024/01/01 04:53:53;;;;;;;6.78;2.95;;;7.80;99.90;;;;;;5078669;27;20039;-81
2024/01/01 04:56:21;;;;;;;6.05;1.92;;;7.70;99.90;;;;;;5106010;27;20088;-80
2024/01/01 04:58:47;;;;;;;9.10;2.47;;;7.70;99.90;;;;;;5115417;27;20048;-80
2024/01/01 05:01:13;;;;;;;10.82;3.83;;;7.70;99.90;;;;;;5111201;27;20047;-80
2024/01/01 05:03:39;;;;;;;3.92;1.65;;;7.60;99.90;;;;;;5115737;27;20039;-80
2024/01/01 05:06:04;;;;;;;7.78;2.10;;;7.60;99.90;;;;;;5105688;27;20048;-81
2024/01/01 05:08:31;;;;;;;5.93;2.47;;;7.60;99.90;;;;;;5121244;27;20047;-81
2024/01/01 05:10:57;;;;;;;10.88;2.22;;;7.60;99.90;;;;;;5120422;27;20047;-81
2024/01/01 05:13:22;;;;;;;6.32;1.50;;;7.60;99.90;;;;;;5082874;27;20043;-81
2024/01/01 05:15:48;;;;;;;4.13;1.17;;;7.60;99.90;;;;;;5104642;27;20063;-80
2024/01/01 05:18:14;;;;;;;11.13;1.73;;;7.70;99.90;;;;;;5089271;27;20456;-80
2024/01/01 05:20:40;;;;;;;5.60;1.60;;;7.60;99.90;;;;;;5110633;27;20042;-80
2024/01/01 05:23:05;;;;;;;12.98;2.20;;;7.70;99.90;;;;;;5117130;27;20559;-81
2024/01/01 05:25:31;;;;;;;7.85;1.90;;;7.60;99.90;;;;;;5094122;27;20151;-81
2024/01/01 05:27:57;;;;;;;5.05;1.55;;;7.60;99.90;;;;;;5114601;27;20031;-80
2024/01/01 05:30:23;;;;;;;8.15;2.00;;;7.60;99.90;;;;;;5102389;27;20036;-81
2024/01/01 05:32:49;;;;;;;11.23;2.05;;;7.60;99.90;;;;;;5090204;27;20050;-80
2024/01/01 05:35:14;;;;;;;3.92;1.20;;;7.60;99.90;;;;;;5082114;27;20047;-80
2024/01/01 05:37:40;;;;;;;5.70;1.67;;;7.70;99.90;;;;;;5075451;28;20040;-81
2024/01/01 05:40:06;;;;;;;4.55;1.27;;;7.70;99.90;;;;;;5090746;27;20046;-81
2024/01/01 05:42:32;;;;;;;6.97;1.73;;;7.70;99.90;;;;;;5076409;28;20081;-81
2024/01/01 05:44:57;;;;;;;8.95;1.80;;;7.70;99.90;;;;;;5124556;27;20035;-81
2024/01/01 05:47:23;;;;;;;4.30;1.52;;;7.70;99.90;;;;;;5076119;28;20499;-81
2024/01/01 05:49:49;;;;;;;8.77;1.80;;;7.70;99.90;;;;;;5103264;27;20457;-81
2024/01/01 05:52:17;;;;;;;5.22;1.50;;;7.60;99.90;;;;;;5119755;27;20080;-80
2024/01/01 05:54:43;;;;;;;9.57;1.60;;;7.60;99.90;;;;;;5090629;28;20035;-81
2024/01/01 05:57:09;;;;;;;9.02;1.80;;;7.70;99.90;;;;;;5092536;28;20527;-81
2024/01/01 05:59:35;;;;;;;4.82;1.23;;;7.70;99.90;;;;;;5125846;27;20043;-81
2024/01/01 06:02:00;;;;;;;4.47;1.58;;;7.80;99.90;;;;;;5102834;28;20044;-81
2024/01/01 06:04:26;;;;;;;4.25;1.08;;;7.80;99.90;;;;;;5109375;28;20132;-81
2024/01/01 06:06:52;;;;;;;11.10;2.83;;;7.80;99.90;;;;;;5080318;28;20046;-81
2024/01/01 06:09:18;;;;;;;6.38;1.25;;;7.70;99.90;;;;;;5122242;27;20773;-81
2024/01/01 06:11:44;;;;;;;6.70;1.65;;;7.80;99.90;;;;;;5073703;28;20044;-81
2024/01/01 06:14:11;;;;;;;5.97;1.83;;;7.80;99.90;;;;;;5138382;27;20035;-81
2024/01/01 06:16:36;;;;;;;5.10;1.48;;;7.80;99.90;;;;;;5105895;28;20035;-81
2024/01/01 06:19:02;;;;;;;5.00;1.27;;;7.80;99.90;;;;;;5120429;27;20039;-81
2024/01/01 06:21:28;;;;;;;4.40;1.25;;;7.90;99.90;;;;;;5083552;28;20035;-81
2024/01/01 06:23:53;;;;;;;3.38;1.08;;;7.80;99.90;;;;;;5119222;27;20411;-81
2024/01/01 06:26:19;;;;;;;4.80;1.38;;;7.90;99.90;;;;;;5089932;28;20502;-81
2024/01/01 06:28:45;;;;;;;5.25;1.08;;;7.80;99.90;;;;;;5104469;28;20472;-81
2024/01/01 06:31:10;;;;;;;6.65;1.40;;;7.80;99.90;;;;;;5105213;28;20071;-80
2024/01/01 06:33:36;;;;;;;7.10;1.60;;;7.80;99.90;;;;;;5089972;28;20072;-81
2024/01/01 06:36:01;;;;;;;4.68;1.40;;;7.80;99.90;;;;;;5105623;28;20115;-81
2024/01/01 06:38:27;;;;;;;6.50;1.73;;;7.80;99.90;;;;;;5120408;27;20084;-82
2024/01/01 06:40:53;;;;;;;5.78;1.60;;;7.80;99.90;;;;;;5108543;28;20089;-80
2024/01/01 06:43:18;;;;;;;7.10;1.80;;;7.90;99.90;;;;;;5088958;28;20043;-81
2024/01/01 06:45:44;;;;;;;5.68;1.45;;;7.90;99.90;;;;;;5076152;28;20076;-82
2024/01/01 06:48:11;;;;;;;5.75;1.60;;;7.90;99.90;;;;;;5070772;28;20423;-81
2024/01/01 06:50:37;;;;;;;5.72;2.10;;;8.00;99.90;;;;;;5080470;28;20043;-82
2024/01/01 06:53:03;;;;;;;3.78;1.75;;;7.90;99.90;;;;;;5074861;28;20040;-81
2024/01/01 06:55:29;;;;;;;5.32;1.00;;;7.80;99.90;;;;;;5086090;28;20079;-81
2024/01/01 06:57:55;;;;;;;5.70;1.50;;;7.80;99.90;;;;;;5079708;28;20140;-81
2024/01/01 07:00:21;;;;;;;5.93;1.63;;;7.80;99.90;;;;;;5090751;28;20127;-81
2024/01/01 07:02:46;;;;;;;5.47;1.38;;;7.90;99.90;;;;;;5118149;27;20436;-81
2024/01/01 07:05:12;;;;;;;5.18;1.50;;;7.90;99.90;;;;;;5087877;27;20498;-81
2024/01/01 07:07:38;;;;;;;5.93;1.85;;;7.80;99.90;;;;;;5106786;27;20131;-81
2024/01/01 07:10:04;;;;;;;7.95;2.03;;;7.80;99.90;;;;;;5074711;27;20043;-81
2024/01/01 07:12:30;;;;;;;6.82;1.70;;;7.80;99.90;;;;;;5118692;27;20053;-81
2024/01/01 07:14:55;;;;;;;5.68;1.30;;;7.70;99.90;;;;;;5105647;27;20146;-81
2024/01/01 07:17:21;;;;;;;5.93;1.60;;;7.80;99.90;;;;;;5089187;27;20122;-82
2024/01/01 07:19:47;;;;;;;5.05;1.38;;;7.90;99.90;;;;;;5106380;27;20694;-81
2024/01/01 07:22:13;;;;;;;7.13;1.40;;;8.00;99.90;;;;;;5125456;27;20032;-81
2024/01/01 07:24:39;;;;;;;6.80;2.10;;;7.90;99.90;;;;;;5082773;27;20051;-82
2024/01/01 07:27:06;;;;;;;6.97;1.77;;;7.90;99.90;;;;;;5111747;27;20043;-81
2024/01/01 07:29:31;;;;;;;6.85;1.25;;;7.80;99.90;;;;;;5098028;27;20067;-81
2024/01/01 07:31:57;;;;;;;11.32;1.77;;;7.90;99.90;;;;;;5079803;27;20142;-81
2024/01/01 07:34:24;;;;;;;6.28;1.80;;;7.90;99.90;;;;;;5098242;27;20047;-81
2024/01/01 07:36:50;;;;;;;6.35;1.88;;;7.80;99.90;;;;;;5123476;27;20035;-81
2024/01/01 07:39:19;;;;;;;4.95;1.42;;;7.80;99.90;;;;;;5111594;27;21483;-81
2024/01/01 07:41:46;;;;;;;2.58;1.17;;;7.90;99.90;;;;;;5129554;27;20072;-82
2024/01/01 07:44:12;;;;;;;4.88;1.15;;;7.90;99.90;;;;;;5128746;27;20043;-81
2024/01/01 07:46:39;;;;;;;5.93;1.40;;;8.00;99.90;;;;;;5105884;27;20076;-82
2024/01/01 07:49:06;;;;;;;5.03;1.55;;;7.90;99.90;;;;;;5092191;27;20130;-81
2024/01/01 07:51:32;;;;;;;1.25;0.80;;;7.90;99.90;;;;;;5098529;27;20050;-81
2024/01/01 07:53:58;;;;;;;4.97;1.00;;;7.90;99.90;;;;;;5115251;27;20047;-82
2024/01/01 07:56:23;;;;;;;6.80;1.85;;;7.90;99.90;;;;;;5078555;27;20070;-81
2024/01/01 07:58:51;;;;;;;5.32;1.50;;;7.80;99.90;;;;;;5091678;27;20517;-82
2024/01/01 08:01:16;;;;;;;4.25;1.25;;;7.80;99.90;;;;;;5103047;27;20446;-82
2024/01/01 08:03:42;;;;;;;7.18;1.58;;;7.60;99.90;;;;;;5109803;27;20047;-81
2024/01/01 08:06:08;;;;;;;5.38;1.48;;;7.70;99.90;;;;;;5104021;27;20762;-82
2024/01/01 08:08:33;;;;;;;9.52;2.15;;;7.80;99.90;;;;;;5125716;27;20176;-81
2024/01/01 08:10:59;;;;;;;6.30;1.10;;;7.80;99.90;;;;;;5090450;27;20031;-82
2024/01/01 08:13:25;;;;;;;6.88;1.98;;;7.80;99.90;;;;;;5078409;27;20485;-81
2024/01/01 08:15:50;;;;;;;7.47;1.85;;;7.80;99.90;;;;;;5112811;27;20091;-81
2024/01/01 08:18:16;;;;;;;7.07;2.03;;;7.90;99.90;;;;;;5074835;27;20046;-81
2024/01/01 08:20:42;;;;;;;10.32;2.03;;;7.90;99.90;;;;;;5118279;27;20063;-81
2024/01/01 08:23:07;;;;;;;6.30;2.10;;;7.90;99.90;;;;;;5094872;27;20126;-81
2024/01/01 08:25:33;;;;;;;7.70;1.30;;;7.60;99.90;;;;;;5084176;27;20036;-80
2024/01/01 08:28:00;;;;;;;4.15;1.15;;;7.40;99.90;;;;;;5101903;27;20070;-79
2024/01/01 08:30:25;;;;;;;2.72;0.60;;;7.40;99.90;;;;;;5110228;27;20051;-81
2024/01/01 08:32:51;;;;;;;4.10;0.93;;;7.50;99.90;;;;;;5075322;27;20027;-80
2024/01/01 08:35:17;;;;;;;4.88;0.95;;;7.40;99.90;;;;;;5123056;27;20091;-80
2024/01/01 08:37:43;;;;;;;3.13;0.80;;;7.40;99.90;;;;;;5125993;27;20078;-80
2024/01/01 08:40:12;;;;;;;5.13;0.90;;;7.40;99.90;;;;;;5080726;28;20051;-81
2024/01/01 08:42:38;;;;;;;2.03;0.50;;;7.30;99.90;;;;;;5121071;27;20039;-80
2024/01/01 08:45:04;;;;;;;2.38;0.77;;;7.40;99.90;;;;;;5110104;27;20380;-80
2024/01/01 08:47:30;;;;;;;5.18;0.90;;;7.40;99.90;;;;;;5082607;27;20035;-80
2024/01/01 08:49:56;;;;;;;1.13;0.38;;;7.30;99.90;;;;;;5105919;27;20456;-80
2024/01/01 08:52:21;;;;;;;4.38;0.82;;;7.40;99.90;;;;;;5105543;27;20043;-79
2024/01/01 08:54:47;;;;;;;2.63;0.85;;;7.40;99.90;;;;;;5124864;27;20400;-81
2024/01/01 08:57:13;;;;;;;0.73;0.50;;;7.20;99.90;;;;;;5130362;27;20040;-81
2024/01/01 08:59:39;;;;;;;5.43;1.20;;;7.30;99.90;;;;;;5087372;28;20576;-81
2024/01/01 09:02:06;;;;;;;7.63;1.27;;;7.50;99.90;;;;;;5117577;27;20040;-81
2024/01/01 09:04:32;;;;;;;6.53;1.30;;;7.40;99.90;;;;;;5084119;27;20047;-81
2024/01/01 09:07:00;;;;;;;5.15;1.00;;;7.50;99.90;;;;;;5083331;28;20032;-81
2024/01/01 09:09:27;;;;;;;5.30;1.13;;;7.60;99.90;;;;;;5106242;28;20043;-81
2024/01/01 09:11:53;;;;;;;11.07;1.98;;;7.60;99.90;;;;;;5110095;27;20051;-81
2024/01/01 09:14:18;;;;;;;7.05;1.48;;;7.60;99.90;;;;;;5107682;27;20425;-80
2024/01/01 09:16:44;;;;;;;9.13;2.20;;;7.60;99.90;;;;;;5098136;27;20174;-81
2024/01/01 09:19:10;;;;;;;5.78;1.60;;;7.50;99.90;;;;;;5086577;27;20169;-81
2024/01/01 09:21:35;;;;;;;5.93;1.58;;;7.50;99.90;;;;;;5099599;27;20397;-81
2024/01/01 09:24:01;;;;;;;4.22;1.55;;;7.70;99.90;;;;;;5119186;27;20085;-81
2024/01/01 09:26:29;;;;;;;8.80;1.77;;;7.80;99.90;;;;;;5124695;27;20051;-81
2024/01/01 09:28:55;;;;;;;9.32;2.20;;;8.00;99.90;;;;;;5100936;27;20044;-81
2024/01/01 09:31:21;;;;;;;5.15;1.73;;;8.00;99.90;;;;;;5121411;27;20043;-81
2024/01/01 09:33:46;;;;;;;4.15;1.15;;;8.10;99.90;;;;;;5087759;27;20054;-81
2024/01/01 09:36:13;;;;;;;14.13;1.95;;;8.10;99.90;;;;;;5086742;27;20035;-82
2024/01/01 09:38:39;;;;;;;6.20;1.45;;;8.00;99.90;;;;;;5088801;27;20040;-81
2024/01/01 09:41:09;;;;;;;5.82;0.98;;;8.00;99.90;;;;;;5117572;27;22075;-81
2024/01/01 09:43:34;;;;;;;6.70;1.30;;;8.00;99.90;;;;;;5098654;27;20047;-81
2024/01/01 09:46:00;;;;;;;6.00;1.58;;;8.10;99.90;;;;;;5093169;28;20117;-82
2024/01/01 09:48:26;;;;;;;6.93;1.25;;;8.10;99.90;;;;;;5085782;28;20287;-81
2024/01/01 09:50:52;;;;;;;3.05;0.90;;;8.10;99.90;;;;;;5099641;27;20055;-82
2024/01/01 09:53:18;;;;;;;4.47;1.30;;;8.20;99.90;;;;;;5086436;28;20039;-81
2024/01/01 09:55:51;;;;;;;6.53;1.60;;;8.10;99.90;;;;;;5118043;27;20039;-81
2024/01/01 09:58:17;;;;;;;6.43;1.77;;;8.10;99.90;;;;;;5123824;27;20052;-81
2024/01/01 10:00:43;;;;;;;7.88;2.35;;;8.20;99.90;;;;;;5129170;28;20050;-80
2024/01/01 10:03:10;;;;;;;7.70;1.25;;;8.10;99.90;;;;;;5106993;28;20035;-81
2024/01/01 10:05:36;;;;;;;3.83;1.23;;;8.20;99.90;;;;;;5111883;28;20044;-81
2024/01/01 10:08:12;;;;;;;6.28;1.45;;;8.20;99.90;;;;;;5127916;27;20114;-81
2024/01/01 10:10:38;;;;;;;4.78;0.93;;;8.20;99.90;;;;;;5077991;28;20070;-81
2024/01/01 10:13:08;;;;;;;5.07;1.85;;;8.30;99.90;;;;;;5126250;27;20058;-82
2024/01/01 10:15:39;;;;;;;10.68;1.77;;;8.20;99.90;;;;;;5095093;28;20492;-81
2024/01/01 10:18:09;;;;;;;4.95;1.42;;;8.20;99.90;;;;;;5092878;28;20032;-81
2024/01/01 10:20:34;;;;;;;5.95;1.52;;;8.30;99.90;;;;;;5111383;28;20496;-81
2024/01/01 10:23:13;;;;;;;9.10;2.25;;;8.40;99.90;;;;;;5121189;27;20027;-82
2024/01/01 10:25:38;;;;;;;5.03;1.50;;;8.40;99.90;;;;;;5089515;28;20115;-82
2024/01/01 10:28:04;;;;;;;6.60;1.10;;;8.40;99.90;;;;;;5093594;28;20452;-82
2024/01/01 10:30:30;;;;;;;7.50;1.35;;;8.30;99.90;;;;;;5091552;28;20032;-82
2024/01/01 10:32:56;;;;;;;5.95;1.70;;;8.40;99.90;;;;;;5126284;27;20042;-82
2024/01/01 10:35:22;;;;;;;6.43;1.67;;;8.40;99.90;;;;;;5090419;28;20383;-82
2024/01/01 10:37:49;;;;;;;3.85;0.98;;;8.50;99.90;;;;;;5108411;28;20555;-82
2024/01/01 10:40:15;;;;;;;11.38;1.55;;;8.40;99.90;;;;;;5114262;28;20040;-82
2024/01/01 10:42:46;;;;;;;8.77;1.38;;;8.40;99.90;;;;;;5127496;27;20042;-82
2024/01/01 10:45:12;;;;;;;4.72;1.17;;;8.50;99.90;;;;;;5130460;27;20027;-81
2024/01/01 10:47:38;;;;;;;8.35;1.40;;;8.40;99.90;;;;;;5122409;27;20407;-82
2024/01/01 10:50:26;;;;;;;10.13;1.77;;;8.40;99.90;;;;;;5111394;27;20039;-82
2024/01/01 10:53:12;;;;;;;6.10;1.50;;;8.40;99.90;;;;;;5097961;28;20122;-82
2024/01/01 10:56:05;;;;;;;3.50;0.70;;;8.30;99.90;;;;;;5093924;28;20051;-81
2024/01/01 10:58:37;;;;;;;4.55;1.20;;;8.30;99.90;;;;;;5095240;28;20098;-82
2024/01/01 11:01:12;;;;;;;5.82;1.38;;;8.20;99.90;;;;;;5096709;27;21364;-82
2024/01/01 11:03:38;;;;;;;4.13;1.42;;;8.20;99.90;;;;;;5128277;27;20035;-82
2024/01/01 11:06:33;;;;;;;3.40;0.55;;;8.00;99.90;;;;;;5148677;27;20071;-81
2024/01/01 11:09:26;;;;;;;2.72;0.75;;;8.10;99.90;;;;;;5143950;27;20093;-82
2024/01/01 11:11:52;;;;;;;4.65;1.15;;;8.20;99.90;;;;;;5097199;28;20123;-81
2024/01/01 11:14:26;;;;;;;6.75;1.40;;;8.20;99.90;;;;;;5131844;27;20123;-81
2024/01/01 11:16:53;;;;;;;6.43;1.58;;;8.30;99.90;;;;;;5095705;28;20027;-82
2024/01/01 11:19:41;;;;;;;6.55;1.40;;;8.40;99.90;;;;;;5140947;27;20032;-81
2024/01/01 11:22:31;;;;;;;7.40;1.33;;;8.40;99.90;;;;;;5125689;27;20119;-81
2024/01/01 11:25:01;;;;;;;3.13;0.85;;;8.50;99.90;;;;;;5139731;27;20031;-81
2024/01/01 11:27:31;;;;;;;4.32;1.10;;;8.50;99.90;;;;;;5107457;27;20399;-82
2024/01/01 11:30:07;;;;;;;7.97;1.20;;;8.60;99.90;;;;;;5111636;27;20081;-81
2024/01/01 11:32:35;;;;;;;5.05;0.82;;;8.60;99.90;;;;;;5129026;27;20096;-81
2024/01/01 11:35:06;;;;;;;6.18;1.35;;;8.60;99.90;;;;;;5113175;28;20092;-81
2024/01/01 11:37:32;;;;;;;13.20;1.20;;;8.60;99.90;;;;;;5102355;28;20047;-81
2024/01/01 11:40:05;;;;;;;3.47;0.98;;;8.60;99.90;;;;;;5111007;27;20373;-80
2024/01/01 11:42:31;;;;;;;6.50;1.52;;;8.70;99.90;;;;;;5113493;28;20090;-81
2024/01/01 11:45:08;;;;;;;9.23;1.63;;;8.70;99.90;;;;;;5130845;27;20070;-80
2024/01/01 11:47:34;;;;;;;12.25;1.40;;;8.70;99.90;;;;;;5128685;27;20531;-81
2024/01/01 11:50:04;;;;;;;10.32;1.80;;;8.70;99.90;;;;;;5144957;27;20039;-81
2024/01/01 11:52:30;;;;;;;11.18;1.80;;;8.60;99.90;;;;;;5111978;28;20032;-81
2024/01/01 11:54:56;;;;;;;9.50;1.60;;;8.60;99.90;;;;;;5107290;28;20483;-81
2024/01/01 11:57:21;;;;;;;8.63;1.63;;;8.70;99.90;;;;;;5096233;28;20032;-81
2024/01/01 11:59:49;;;;;;;4.20;1.73;;;8.60;99.90;;;;;;5111015;28;20070;-81
2024/01/01 12:02:17;;;;;;;10.90;2.03;;;8.70;99.90;;;;;;5128757;27;20444;-80
2024/01/01 12:04:53;;;;;;;7.10;1.58;;;8.60;99.90;;;;;;5142739;27;20505;-81
2024/01/01 12:07:26;;;;;;;11.88;2.00;;;8.60;99.90;;;;;;5114433;27;20039;-81
2024/01/01 12:10:11;;;;;;;9.82;1.23;;;8.60;99.90;;;;;;5111384;28;20046;-81
2024/01/01 12:12:41;;;;;;;8.88;2.13;;;8.50;99.90;;;;;;5111781;28;20044;-81
2024/01/01 12:15:16;;;;;;;8.88;1.30;;;8.40;99.90;;;;;;5108613;27;20119;-80
2024/01/01 12:17:43;;;;;;;6.93;1.00;;;8.40;99.90;;;;;;5114790;27;20335;-80
2024/01/01 12:20:10;;;;;;;10.52;2.03;;;8.40;99.90;;;;;;5097582;28;20608;-81
2024/01/01 12:22:36;;;;;;;5.18;1.45;;;8.50;99.90;;;;;;5093778;28;20484;-81
2024/01/01 12:25:02;;;;;;;8.63;1.10;;;8.40;99.90;;;;;;5127691;27;20047;-81
2024/01/01 12:27:28;;;;;;;6.55;2.17;;;8.20;99.90;;;;;;5130988;27;20039;-81
2024/01/01 12:29:57;;;;;;;8.02;1.23;;;8.20;99.90;;;;;;5096582;28;20051;-80
2024/01/01 12:32:23;;;;;;;6.80;1.45;;;8.10;99.90;;;;;;5123380;27;20043;-81
2024/01/01 12:34:51;;;;;;;7.03;1.67;;;8.10;99.90;;;;;;5113625;28;20073;-80
2024/01/01 12:37:17;;;;;;;7.53;1.58;;;8.20;99.90;;;;;;5128851;27;20543;-80
2024/01/01 12:39:43;;;;;;;6.72;1.20;;;8.30;99.90;;;;;;5116698;27;20035;-80
2024/01/01 12:42:09;;;;;;;7.53;1.42;;;8.40;99.90;;;;;;5144352;27;20039;-81
2024/01/01 12:44:35;;;;;;;6.95;1.50;;;8.50;99.90;;;;;;5116373;27;20049;-81
2024/01/01 12:47:02;;;;;;;7.10;1.27;;;8.50;99.90;;;;;;5099303;28;20062;-80
2024/01/01 12:49:30;;;;;;;6.80;1.30;;;8.50;99.90;;;;;;5096585;28;20074;-81
2024/01/01 12:51:57;;;;;;;6.03;1.15;;;8.40;99.90;;;;;;5094470;28;20042;-81